Holly Ann — WDE9094 — position and weather

sailwx.info

Track history (hours):
 
Tides and Currents Weather Stations Pressure Air Temp Water Temp Dewpoint Dewpoint Depression Visibility Wind Speed Wind Dir Waves Ship Positions

Holly Ann

More information available from US FCC via Universal Licensing System and Coast Guard Vessel Documentation Center.

Last reported at 2014-Jul-29 14:33 UTC. Time now 2014-Jul-29 14:51 UTC.
Position N 47°56' W 122°19'.

; draft 4.5 m.

Type: Towing. MMSI: 367413350.

Date/timePositionNaut miles runAvg speedWind from/ knotsBaromVisibWave heightAir tempDewpointWater temp
2014-Jul-29 14:33N 47°56' W 122°19'7 6.8
2014-Jul-29 13:33N 48°01' W 122°13'1 1.0
2014-Jul-29 12:33N 48°01' W 122°11'0 0.0
2014-Jul-29 11:33N 48°01' W 122°11'0 0.0
2014-Jul-29 10:12N 48°01' W 122°11'0 0.0
2014-Jul-29 09:26N 48°01' W 122°11'0 0.0
2014-Jul-29 08:32N 48°01' W 122°11'0 0.0
2014-Jul-29 07:33N 48°01' W 122°11'0 0.0
2014-Jul-29 06:33N 48°01' W 122°11'0 0.0
2014-Jul-29 05:33N 48°01' W 122°11'0 0.0
2014-Jul-29 04:32N 48°01' W 122°11'0 0.0
2014-Jul-29 03:23N 48°01' W 122°11'1 1.2
2014-Jul-29 02:54N 48°01' W 122°12'0 0.1
2014-Jul-29 02:33N 48°01' W 122°12'3 3.3
2014-Jul-29 01:33N 47°58' W 122°15'1 1.4
2014-Jul-29 00:33N 47°58' W 122°17'2 2.3
2014-Jul-28 23:33N 47°57' W 122°19'5 5.4
2014-Jul-28 22:33N 47°52' W 122°23'2 5.2
2014-Jul-28 22:09N 47°50' W 122°24'3 5.0
2014-Jul-28 21:33N 47°47' W 122°25'0 4.6
2014-Jul-28 21:29N 47°46' W 122°25'5 5.0
2014-Jul-28 20:33N 47°42' W 122°26'0 4.8
2014-Jul-28 20:29N 47°41' W 122°26'5 5.3
2014-Jul-28 19:33N 47°37' W 122°26'0 2.9
2014-Jul-28 19:33N 47°37' W 122°26'5 5.3
2014-Jul-28 18:33N 47°31' W 122°28'7 7.4
2014-Jul-28 17:33N 47°24' W 122°32'9 9.1
2014-Jul-28 16:33N 47°15' W 122°34'10 7.3
2014-Jul-28 15:10N 47°10' W 122°46'4 6.6
2014-Jul-28 14:33N 47°10' W 122°52'  
2014-Jul-25 22:31N 47°18' W 122°33'9 9.0
2014-Jul-25 21:31N 47°27' W 122°31'7 8.9
2014-Jul-25 20:41N 47°34' W 122°27'1 7.7
2014-Jul-25 20:33N 47°34' W 122°26'0 6.3
2014-Jul-25 20:32N 47°34' W 122°26'4 4.1
2014-Jul-25 19:33N 47°33' W 122°21'0 6.1
2014-Jul-25 19:31N 47°33' W 122°21'2 1.9
2014-Jul-25 18:33N 47°35' W 122°21'0 0.0
2014-Jul-25 18:31N 47°35' W 122°21'0 0.3
2014-Jul-25 17:33N 47°35' W 122°22'2 1.0
2014-Jul-25 15:37N 47°33' W 122°21'0 0.0
2014-Jul-25 15:33N 47°33' W 122°21'0 0.0
2014-Jul-25 15:32N 47°33' W 122°21'0 0.0
2014-Jul-25 14:33N 47°33' W 122°21'0 0.0
2014-Jul-25 14:32N 47°33' W 122°21'0 0.0
2014-Jul-25 13:27N 47°33' W 122°21'0 0.0
2014-Jul-25 13:11N 47°33' W 122°21'0 0.0
2014-Jul-25 12:33N 47°33' W 122°21'0 0.0
2014-Jul-25 12:15N 47°33' W 122°21'0 0.0
2014-Jul-25 11:23N 47°33' W 122°21'0 0.0
2014-Jul-25 10:50N 47°33' W 122°21'0 0.0
2014-Jul-25 09:33N 47°33' W 122°21'0 0.0
2014-Jul-25 09:32N 47°33' W 122°21'0 0.0
2014-Jul-25 08:33N 47°33' W 122°21'0 0.0
2014-Jul-25 08:33N 47°33' W 122°21'0 0.0
2014-Jul-25 07:33N 47°33' W 122°21'0 0.0
2014-Jul-25 07:33N 47°33' W 122°21'3 4.0
2014-Jul-25 06:43N 47°36' W 122°23'1 7.3
2014-Jul-25 06:33N 47°35' W 122°25'8 7.6
2014-Jul-25 05:33N 47°29' W 122°30'1 8.2
2014-Jul-25 05:28N 47°28' W 122°31'7 7.8
2014-Jul-25 04:33N 47°21' W 122°32'9 8.6
2014-Jul-25 03:33N 47°13' W 122°36'7 7.4
2014-Jul-25 02:33N 47°10' W 122°46'5 0.2
2014-Jul-23 23:29N 47°10' W 122°53'9 7.3
2014-Jul-23 22:13N 47°11' W 122°40'6 8.8
2014-Jul-23 21:33N 47°15' W 122°34'10 9.5
2014-Jul-23 20:33N 47°25' W 122°32'3 8.4
2014-Jul-23 20:12N 47°28' W 122°31'6 8.6
2014-Jul-23 19:33N 47°33' W 122°27'1 9.1
2014-Jul-23 19:27N 47°34' W 122°27'4 4.4
2014-Jul-23 18:33N 47°34' W 122°21'0 0.0
2014-Jul-23 18:32N 47°34' W 122°21'0 0.0
2014-Jul-23 17:33N 47°34' W 122°21'0 0.0
2014-Jul-23 17:32N 47°34' W 122°21'0 0.0
2014-Jul-23 16:33N 47°34' W 122°21'0 0.0
2014-Jul-23 16:32N 47°34' W 122°21'0 0.0
2014-Jul-23 15:33N 47°34' W 122°21'0 0.0
2014-Jul-23 15:32N 47°34' W 122°21'0 0.0
2014-Jul-23 14:33N 47°34' W 122°21'0 0.0
2014-Jul-23 14:31N 47°34' W 122°21'0 0.0
2014-Jul-23 13:33N 47°34' W 122°21'0 0.0
2014-Jul-23 13:31N 47°34' W 122°21'0 0.0
2014-Jul-23 12:33N 47°34' W 122°21'0 0.0
2014-Jul-23 12:31N 47°34' W 122°21'0 0.0
2014-Jul-23 11:33N 47°34' W 122°21'0 0.0
2014-Jul-23 11:31N 47°34' W 122°21'0 0.0
2014-Jul-23 10:33N 47°34' W 122°21'0 0.0
2014-Jul-23 10:30N 47°34' W 122°21'0 0.0
2014-Jul-23 09:33N 47°34' W 122°21'0 0.0
2014-Jul-23 09:30N 47°34' W 122°21'1 0.9
2014-Jul-23 08:33N 47°33' W 122°21'0 0.0
2014-Jul-23 08:30N 47°33' W 122°21'0 0.0
2014-Jul-23 07:33N 47°33' W 122°21'0 0.0
2014-Jul-23 07:30N 47°33' W 122°21'0 0.1
2014-Jul-23 06:33N 47°33' W 122°21'0 0.1
2014-Jul-23 06:29N 47°33' W 122°21'3 3.6
2014-Jul-23 05:33N 47°36' W 122°24'0 7.1
2014-Jul-23 05:29N 47°36' W 122°24'7 7.5
2014-Jul-23 04:33N 47°30' W 122°30'2 7.8
2014-Jul-23 04:19N 47°28' W 122°31'6 7.6
2014-Jul-23 03:33N 47°22' W 122°32'8 8.1
2014-Jul-23 02:33N 47°14' W 122°35'9 7.2
2014-Jul-23 01:16N 47°10' W 122°46'5 6.6
2014-Jul-23 00:29N 47°10' W 122°54'  
Track history (hours):
 
Tides and Currents Weather Stations Pressure Air Temp Water Temp Dewpoint Dewpoint Depression Visibility Wind Speed Wind Dir Waves Ship Positions

Holly Ann

More information available from US FCC via Universal Licensing System and Coast Guard Vessel Documentation Center.

Last reported at 2014-Jul-29 14:33 UTC. Time now 2014-Jul-29 14:51 UTC.
Position N 47°56' W 122°19'.

; draft 4.5 m.

Type: Towing. MMSI: 367413350.

Date/timePositionNaut miles runAvg speedWind from/ knotsBaromVisibWave heightAir tempDewpointWater temp
2014-Jul-29 14:33N 47°56' W 122°19'7 6.8
2014-Jul-29 13:33N 48°01' W 122°13'1 1.0
2014-Jul-29 12:33N 48°01' W 122°11'0 0.0
2014-Jul-29 11:33N 48°01' W 122°11'0 0.0
2014-Jul-29 10:12N 48°01' W 122°11'0 0.0
2014-Jul-29 09:26N 48°01' W 122°11'0 0.0
2014-Jul-29 08:32N 48°01' W 122°11'0 0.0
2014-Jul-29 07:33N 48°01' W 122°11'0 0.0
2014-Jul-29 06:33N 48°01' W 122°11'0 0.0
2014-Jul-29 05:33N 48°01' W 122°11'0 0.0
2014-Jul-29 04:32N 48°01' W 122°11'0 0.0
2014-Jul-29 03:23N 48°01' W 122°11'1 1.2
2014-Jul-29 02:54N 48°01' W 122°12'0 0.1
2014-Jul-29 02:33N 48°01' W 122°12'3 3.3
2014-Jul-29 01:33N 47°58' W 122°15'1 1.4
2014-Jul-29 00:33N 47°58' W 122°17'2 2.3
2014-Jul-28 23:33N 47°57' W 122°19'5 5.4
2014-Jul-28 22:33N 47°52' W 122°23'2 5.2
2014-Jul-28 22:09N 47°50' W 122°24'3 5.0
2014-Jul-28 21:33N 47°47' W 122°25'0 4.6
2014-Jul-28 21:29N 47°46' W 122°25'5 5.0
2014-Jul-28 20:33N 47°42' W 122°26'0 4.8
2014-Jul-28 20:29N 47°41' W 122°26'5 5.3
2014-Jul-28 19:33N 47°37' W 122°26'0 2.9
2014-Jul-28 19:33N 47°37' W 122°26'5 5.3
2014-Jul-28 18:33N 47°31' W 122°28'7 7.4
2014-Jul-28 17:33N 47°24' W 122°32'9 9.1
2014-Jul-28 16:33N 47°15' W 122°34'10 7.3
2014-Jul-28 15:10N 47°10' W 122°46'4 6.6
2014-Jul-28 14:33N 47°10' W 122°52'  
2014-Jul-25 22:31N 47°18' W 122°33'9 9.0
2014-Jul-25 21:31N 47°27' W 122°31'7 8.9
2014-Jul-25 20:41N 47°34' W 122°27'1 7.7
2014-Jul-25 20:33N 47°34' W 122°26'0 6.3
2014-Jul-25 20:32N 47°34' W 122°26'4 4.1
2014-Jul-25 19:33N 47°33' W 122°21'0 6.1
2014-Jul-25 19:31N 47°33' W 122°21'2 1.9
2014-Jul-25 18:33N 47°35' W 122°21'0 0.0
2014-Jul-25 18:31N 47°35' W 122°21'0 0.3
2014-Jul-25 17:33N 47°35' W 122°22'2 1.0
2014-Jul-25 15:37N 47°33' W 122°21'0 0.0
2014-Jul-25 15:33N 47°33' W 122°21'0 0.0
2014-Jul-25 15:32N 47°33' W 122°21'0 0.0
2014-Jul-25 14:33N 47°33' W 122°21'0 0.0
2014-Jul-25 14:32N 47°33' W 122°21'0 0.0
2014-Jul-25 13:27N 47°33' W 122°21'0 0.0
2014-Jul-25 13:11N 47°33' W 122°21'0 0.0
2014-Jul-25 12:33N 47°33' W 122°21'0 0.0
2014-Jul-25 12:15N 47°33' W 122°21'0 0.0
2014-Jul-25 11:23N 47°33' W 122°21'0 0.0
2014-Jul-25 10:50N 47°33' W 122°21'0 0.0
2014-Jul-25 09:33N 47°33' W 122°21'0 0.0
2014-Jul-25 09:32N 47°33' W 122°21'0 0.0
2014-Jul-25 08:33N 47°33' W 122°21'0 0.0
2014-Jul-25 08:33N 47°33' W 122°21'0 0.0
2014-Jul-25 07:33N 47°33' W 122°21'0 0.0
2014-Jul-25 07:33N 47°33' W 122°21'3 4.0
2014-Jul-25 06:43N 47°36' W 122°23'1 7.3
2014-Jul-25 06:33N 47°35' W 122°25'8 7.6
2014-Jul-25 05:33N 47°29' W 122°30'1 8.2
2014-Jul-25 05:28N 47°28' W 122°31'7 7.8
2014-Jul-25 04:33N 47°21' W 122°32'9 8.6
2014-Jul-25 03:33N 47°13' W 122°36'7 7.4
2014-Jul-25 02:33N 47°10' W 122°46'5 0.2
2014-Jul-23 23:29N 47°10' W 122°53'9 7.3
2014-Jul-23 22:13N 47°11' W 122°40'6 8.8
2014-Jul-23 21:33N 47°15' W 122°34'10 9.5
2014-Jul-23 20:33N 47°25' W 122°32'3 8.4
2014-Jul-23 20:12N 47°28' W 122°31'6 8.6
2014-Jul-23 19:33N 47°33' W 122°27'1 9.1
2014-Jul-23 19:27N 47°34' W 122°27'4 4.4
2014-Jul-23 18:33N 47°34' W 122°21'0 0.0
2014-Jul-23 18:32N 47°34' W 122°21'0 0.0
2014-Jul-23 17:33N 47°34' W 122°21'0 0.0
2014-Jul-23 17:32N 47°34' W 122°21'0 0.0
2014-Jul-23 16:33N 47°34' W 122°21'0 0.0
2014-Jul-23 16:32N 47°34' W 122°21'0 0.0
2014-Jul-23 15:33N 47°34' W 122°21'0 0.0
2014-Jul-23 15:32N 47°34' W 122°21'0 0.0
2014-Jul-23 14:33N 47°34' W 122°21'0 0.0
2014-Jul-23 14:31N 47°34' W 122°21'0 0.0
2014-Jul-23 13:33N 47°34' W 122°21'0 0.0
2014-Jul-23 13:31N 47°34' W 122°21'0 0.0
2014-Jul-23 12:33N 47°34' W 122°21'0 0.0
2014-Jul-23 12:31N 47°34' W 122°21'0 0.0
2014-Jul-23 11:33N 47°34' W 122°21'0 0.0
2014-Jul-23 11:31N 47°34' W 122°21'0 0.0
2014-Jul-23 10:33N 47°34' W 122°21'0 0.0
2014-Jul-23 10:30N 47°34' W 122°21'0 0.0
2014-Jul-23 09:33N 47°34' W 122°21'0 0.0
2014-Jul-23 09:30N 47°34' W 122°21'1 0.9
2014-Jul-23 08:33N 47°33' W 122°21'0 0.0
2014-Jul-23 08:30N 47°33' W 122°21'0 0.0
2014-Jul-23 07:33N 47°33' W 122°21'0 0.0
2014-Jul-23 07:30N 47°33' W 122°21'0 0.1
2014-Jul-23 06:33N 47°33' W 122°21'0 0.1
2014-Jul-23 06:29N 47°33' W 122°21'3 3.6
2014-Jul-23 05:33N 47°36' W 122°24'0 7.1
2014-Jul-23 05:29N 47°36' W 122°24'7 7.5
2014-Jul-23 04:33N 47°30' W 122°30'2 7.8
2014-Jul-23 04:19N 47°28' W 122°31'6 7.6
2014-Jul-23 03:33N 47°22' W 122°32'8 8.1
2014-Jul-23 02:33N 47°14' W 122°35'9 7.2
2014-Jul-23 01:16N 47°10' W 122°46'5 6.6
2014-Jul-23 00:29N 47°10' W 122°54'  

Dump ship's entire track history